Terminal Aerodrome Forecast
Issued by NWS Wilmington, OH

Current Version | Previous Version | Text Only | Print | Product List | Glossary Off
Versions: 1 2 3 4 5 6 7 8 9 10 11 12 13 14 15 16 17 18 19 20 21 22 23 24 25

000
FTUS41 KILN 291400 AAA
TAFCVG
TAF AMD
KCVG 291459Z 2915/3018 28010G18KT P6SM SKC
     FM291900 29010G18KT P6SM SCT040
     FM292300 30008KT P6SM SCT040
     FM300400 34004KT P6SM SCT040
     FM301200 VRB03KT P6SM FEW040=

USA.gov is the U.S. government's official web portal to all federal, state and local government web resources and services.